Time;durP1;ratioP1;P1;durP2;ratioP2;P2;SDS_P1;SDS_P2;PMS_P1;PMS_P2;Temp;Humidity;BMP_temperature;BMP_pressure;BME280_temperature;BME280_humidity;BME280_pressure;Samples;Min_cycle;Max_cycle;Signal;HPM_P1;HPM_P2
2022/06/11 00:00:50;;;;;;;1.88;1.13;;;25.00;50.60;;;;;;5041910;28;20511;-46
2022/06/11 00:03:16;;;;;;;2.20;1.33;;;24.90;50.60;;;;;;5044757;28;20025;-45
2022/06/11 00:05:42;;;;;;;2.60;1.27;;;24.90;50.60;;;;;;5044772;28;20683;-46
2022/06/11 00:08:09;;;;;;;1.98;1.13;;;24.90;50.60;;;;;;5043974;28;20029;-45
2022/06/11 00:10:35;;;;;;;2.42;1.33;;;24.90;50.60;;;;;;5044338;28;20614;-49
2022/06/11 00:13:02;;;;;;;1.80;1.20;;;24.90;50.60;;;;;;5043452;28;20736;-47
2022/06/11 00:15:29;;;;;;;1.90;1.10;;;24.90;50.60;;;;;;5043178;28;20104;-46
2022/06/11 00:17:56;;;;;;;1.90;1.25;;;24.90;50.60;;;;;;5043214;28;20025;-46
2022/06/11 00:20:22;;;;;;;2.35;1.42;;;24.90;50.50;;;;;;5042760;28;20075;-45
2022/06/11 00:22:48;;;;;;;2.25;1.20;;;24.90;50.60;;;;;;5044030;28;20028;-46
2022/06/11 00:25:14;;;;;;;2.03;1.30;;;24.90;50.50;;;;;;5042844;28;20025;-45
2022/06/11 00:27:40;;;;;;;1.80;1.20;;;24.80;50.50;;;;;;5043012;28;20035;-45
2022/06/11 00:30:11;;;;;;;2.45;1.48;;;24.90;50.50;;;;;;5043368;28;20117;-46
2022/06/11 00:32:40;;;;;;;1.90;1.15;;;24.80;50.40;;;;;;5041889;28;20024;-45
2022/06/11 00:35:07;;;;;;;2.67;1.50;;;24.80;50.50;;;;;;5044487;28;20491;-45
2022/06/11 00:37:34;;;;;;;1.80;1.15;;;24.80;50.40;;;;;;5041551;28;20032;-46
2022/06/11 00:40:00;;;;;;;3.72;1.70;;;24.80;50.40;;;;;;5042482;28;20025;-46
2022/06/11 00:42:31;;;;;;;2.40;1.38;;;24.80;50.40;;;;;;5043482;28;20092;-46
2022/06/11 00:45:17;;;;;;;2.25;1.40;;;24.80;50.40;;;;;;5041497;28;20040;-46
2022/06/11 00:47:47;;;;;;;2.20;1.30;;;24.80;50.40;;;;;;5042583;28;20029;-45
2022/06/11 00:50:25;;;;;;;2.13;1.13;;;24.80;50.50;;;;;;5043690;28;20493;-45
2022/06/11 00:52:52;;;;;;;2.80;1.50;;;24.80;50.40;;;;;;5040157;28;20551;-46
2022/06/11 00:55:22;;;;;;;2.17;1.30;;;24.80;50.40;;;;;;5042802;28;20991;-46
2022/06/11 00:57:55;;;;;;;2.03;1.30;;;24.80;50.50;;;;;;5041843;28;20029;-47
2022/06/11 01:00:34;;;;;;;2.40;1.40;;;24.80;50.40;;;;;;5039972;28;20029;-46
2022/06/11 01:03:02;;;;;;;2.30;1.42;;;24.80;50.40;;;;;;5041573;28;20047;-47
2022/06/11 01:05:32;;;;;;;1.98;1.13;;;24.80;50.40;;;;;;5043739;28;20787;-45
2022/06/11 01:08:03;;;;;;;2.13;1.13;;;24.80;50.40;;;;;;5041290;28;20028;-47
2022/06/11 01:10:41;;;;;;;3.40;1.40;;;24.80;50.40;;;;;;5041205;28;20530;-46
2022/06/11 01:13:35;;;;;;;1.85;1.15;;;24.80;50.30;;;;;;5041973;28;20058;-47
2022/06/11 01:16:26;;;;;;;2.00;1.30;;;24.80;50.30;;;;;;5040804;28;20500;-45
2022/06/11 01:19:04;;;;;;;2.05;1.10;;;24.80;50.40;;;;;;5043508;28;20017;-45
2022/06/11 01:22:01;;;;;;;2.17;1.38;;;24.70;50.30;;;;;;5042466;28;20021;-45
2022/06/11 01:24:42;;;;;;;2.75;1.38;;;24.70;50.30;;;;;;5042608;28;20017;-45
2022/06/11 01:27:28;;;;;;;2.20;1.17;;;24.70;50.30;;;;;;5042440;28;20025;-46
2022/06/11 01:30:00;;;;;;;2.08;1.13;;;24.70;50.30;;;;;;5042320;28;20033;-45
2022/06/11 01:32:41;;;;;;;2.50;1.42;;;24.70;50.60;;;;;;5039973;28;20763;-47
2022/06/11 01:35:36;;;;;;;2.38;1.33;;;24.70;50.50;;;;;;5042173;28;20055;-47
2022/06/11 01:38:07;;;;;;;2.17;1.17;;;24.70;50.20;;;;;;5047997;28;20041;-46
2022/06/11 01:40:38;;;;;;;2.60;1.50;;;24.70;50.30;;;;;;5042804;28;20033;-46
2022/06/11 01:43:28;;;;;;;3.20;1.30;;;24.70;50.30;;;;;;5041701;28;20013;-47
2022/06/11 01:45:55;;;;;;;2.25;1.40;;;24.70;50.30;;;;;;5042505;28;20033;-47
2022/06/11 01:48:25;;;;;;;2.25;1.30;;;24.70;50.30;;;;;;5042223;28;20690;-47
2022/06/11 01:51:09;;;;;;;1.92;1.20;;;24.70;50.30;;;;;;5042528;28;20067;-47
2022/06/11 01:54:07;;;;;;;2.20;1.13;;;24.70;50.30;;;;;;5042669;28;20021;-46
2022/06/11 01:56:50;;;;;;;2.38;1.27;;;24.70;50.30;;;;;;5041200;28;20037;-47
2022/06/11 01:59:28;;;;;;;2.13;1.10;;;24.70;50.30;;;;;;5042381;28;20087;-46
2022/06/11 02:02:12;;;;;;;1.98;1.38;;;24.70;50.30;;;;;;5040518;28;20024;-46
2022/06/11 02:04:46;;;;;;;2.42;1.30;;;24.70;50.20;;;;;;5042553;28;20078;-45
2022/06/11 02:07:22;;;;;;;2.00;1.33;;;24.70;50.20;;;;;;5042429;28;20091;-47
2022/06/11 02:09:54;;;;;;;2.17;1.33;;;24.60;50.10;;;;;;5041675;28;20074;-47
2022/06/11 02:12:43;;;;;;;2.35;1.58;;;24.60;50.10;;;;;;5043764;28;20109;-46
2022/06/11 02:15:23;;;;;;;2.58;1.45;;;24.60;50.10;;;;;;5046854;28;20116;-45
2022/06/11 02:17:54;;;;;;;3.47;1.55;;;24.60;50.10;;;;;;5045157;28;20029;-46
2022/06/11 02:20:25;;;;;;;1.98;1.08;;;24.60;50.00;;;;;;5045020;28;20086;-46
2022/06/11 02:23:00;;;;;;;2.22;1.30;;;24.60;50.10;;;;;;5046156;28;20055;-45
2022/06/11 02:25:40;;;;;;;2.40;1.50;;;24.60;50.20;;;;;;5046467;28;20441;-47
2022/06/11 02:28:11;;;;;;;2.63;1.38;;;24.60;50.10;;;;;;5042201;28;20044;-46
2022/06/11 02:30:40;;;;;;;2.40;1.42;;;24.60;50.00;;;;;;5044097;28;20044;-46
2022/06/11 02:33:10;;;;;;;2.08;1.30;;;24.60;50.10;;;;;;5045399;28;20025;-47
2022/06/11 02:35:38;;;;;;;2.25;1.30;;;24.60;50.00;;;;;;5044060;28;20025;-46
2022/06/11 02:38:08;;;;;;;2.00;1.27;;;24.60;50.10;;;;;;5044964;28;20191;-46
2022/06/11 02:40:44;;;;;;;3.88;1.75;;;24.60;50.00;;;;;;5044892;28;20044;-47
2022/06/11 02:43:10;;;;;;;1.90;1.20;;;24.60;50.10;;;;;;5045492;28;20052;-46
2022/06/11 02:45:35;;;;;;;2.10;1.40;;;24.60;50.00;;;;;;5045004;28;20083;-46
2022/06/11 02:48:01;;;;;;;2.00;1.33;;;24.60;50.00;;;;;;5045972;28;20112;-46
2022/06/11 02:50:30;;;;;;;2.22;1.15;;;24.60;50.00;;;;;;5046240;28;20028;-46
2022/06/11 02:52:58;;;;;;;2.40;1.40;;;24.60;50.00;;;;;;5045966;28;20090;-46
2022/06/11 02:55:25;;;;;;;1.75;1.15;;;24.60;50.00;;;;;;5046522;28;20025;-46
2022/06/11 02:57:50;;;;;;;2.45;1.30;;;24.60;50.00;;;;;;5045625;28;20813;-46
2022/06/11 03:00:21;;;;;;;2.05;1.27;;;24.60;50.00;;;;;;5044985;28;20017;-46
2022/06/11 03:02:48;;;;;;;2.28;1.33;;;24.50;50.00;;;;;;5046010;28;20075;-46
2022/06/11 03:05:16;;;;;;;2.00;1.20;;;24.50;50.00;;;;;;5043535;28;20029;-45
2022/06/11 03:07:42;;;;;;;1.67;1.10;;;24.50;50.00;;;;;;5045048;28;20104;-44
2022/06/11 03:10:08;;;;;;;2.35;1.40;;;24.60;50.00;;;;;;5045406;28;20104;-46
2022/06/11 03:12:34;;;;;;;1.77;1.20;;;24.50;50.00;;;;;;5045807;28;20044;-46
2022/06/11 03:15:01;;;;;;;2.22;1.35;;;24.50;50.00;;;;;;5045427;28;20673;-47
2022/06/11 03:17:28;;;;;;;1.63;1.02;;;24.60;50.00;;;;;;5044157;28;20035;-45
2022/06/11 03:19:54;;;;;;;2.25;1.30;;;24.50;50.00;;;;;;5045362;28;20048;-46
2022/06/11 03:22:20;;;;;;;2.20;1.27;;;24.50;50.00;;;;;;5045707;28;21259;-46
2022/06/11 03:24:46;;;;;;;2.17;1.25;;;24.50;50.00;;;;;;5044246;28;20024;-45
2022/06/11 03:27:13;;;;;;;2.70;1.48;;;24.50;50.00;;;;;;5045104;28;20025;-47
2022/06/11 03:29:39;;;;;;;1.77;1.20;;;24.50;50.10;;;;;;5044844;28;20673;-46
2022/06/11 03:32:05;;;;;;;2.00;1.20;;;24.50;50.70;;;;;;5043157;28;20045;-45
2022/06/11 03:34:31;;;;;;;2.08;1.27;;;24.50;50.00;;;;;;5045633;28;20028;-46
2022/06/11 03:36:57;;;;;;;2.40;1.38;;;24.50;50.00;;;;;;5045052;28;20021;-46
2022/06/11 03:39:23;;;;;;;1.92;1.10;;;24.50;50.00;;;;;;5044704;28;20024;-46
2022/06/11 03:41:50;;;;;;;1.98;1.20;;;24.50;50.00;;;;;;5044788;28;20047;-46
2022/06/11 03:44:16;;;;;;;2.85;1.48;;;24.50;50.00;;;;;;5043894;28;20484;-47
2022/06/11 03:46:43;;;;;;;2.10;1.23;;;24.50;49.90;;;;;;5044444;28;20108;-46
2022/06/11 03:49:09;;;;;;;2.05;1.25;;;24.50;49.90;;;;;;5044742;28;20586;-46
2022/06/11 03:51:35;;;;;;;1.90;1.20;;;24.50;49.90;;;;;;5044869;28;20035;-46
2022/06/11 03:54:01;;;;;;;2.20;1.30;;;24.50;49.90;;;;;;5044133;28;20033;-47
2022/06/11 03:56:27;;;;;;;2.30;1.40;;;24.50;50.00;;;;;;5044219;28;20432;-46
2022/06/11 03:58:54;;;;;;;2.30;1.48;;;24.50;50.00;;;;;;5044060;28;20078;-45
2022/06/11 04:01:23;;;;;;;1.73;1.30;;;24.50;50.00;;;;;;5040171;28;20025;-46
2022/06/11 04:03:53;;;;;;;2.20;1.38;;;24.50;49.90;;;;;;5044692;28;20497;-46
2022/06/11 04:06:26;;;;;;;2.72;1.42;;;24.50;49.90;;;;;;5043374;28;20239;-47
2022/06/11 04:08:53;;;;;;;2.00;1.17;;;24.50;50.00;;;;;;5042408;28;20029;-46
2022/06/11 04:11:20;;;;;;;1.75;1.23;;;24.50;49.90;;;;;;5044228;28;20024;-46
2022/06/11 04:13:47;;;;;;;2.58;1.40;;;24.50;49.90;;;;;;5044036;28;20740;-46
2022/06/11 04:16:33;;;;;;;2.03;1.30;;;24.50;49.90;;;;;;5044022;28;20025;-45
2022/06/11 04:19:01;;;;;;;2.30;1.33;;;24.40;49.90;;;;;;5043683;28;20021;-46
2022/06/11 04:21:28;;;;;;;2.35;1.38;;;24.40;49.90;;;;;;5042739;28;20021;-47
2022/06/11 04:23:56;;;;;;;2.20;1.30;;;24.40;49.80;;;;;;5043248;28;20655;-45
2022/06/11 04:26:26;;;;;;;2.63;1.48;;;24.40;49.80;;;;;;5042344;28;20043;-46
2022/06/11 04:28:52;;;;;;;2.83;1.48;;;24.40;50.10;;;;;;5043208;28;20033;-45
2022/06/11 04:31:18;;;;;;;2.75;1.30;;;24.40;50.20;;;;;;5040505;28;20021;-46
2022/06/11 04:33:47;;;;;;;2.60;1.60;;;24.40;50.60;;;;;;5043005;28;20078;-46
2022/06/11 04:36:14;;;;;;;3.28;1.90;;;24.40;50.90;;;;;;5041199;28;20223;-47
2022/06/11 04:38:40;;;;;;;2.65;1.50;;;24.40;51.40;;;;;;5041799;28;20516;-47
2022/06/11 04:41:07;;;;;;;3.20;1.77;;;24.50;51.30;;;;;;5032639;28;20175;-47
2022/06/11 04:43:33;;;;;;;3.33;1.60;;;24.50;51.60;;;;;;5042134;28;20024;-46
2022/06/11 04:45:59;;;;;;;2.95;1.58;;;24.50;51.40;;;;;;5040460;28;20715;-47
2022/06/11 04:48:25;;;;;;;2.28;1.48;;;24.50;51.30;;;;;;5042741;28;20167;-48
2022/06/11 04:50:51;;;;;;;2.65;1.65;;;24.50;51.20;;;;;;5041260;28;20032;-46
2022/06/11 04:53:16;;;;;;;2.92;1.60;;;24.50;51.10;;;;;;5041600;28;20025;-47
2022/06/11 04:55:42;;;;;;;2.67;1.35;;;24.50;51.00;;;;;;5043720;28;20174;-47
2022/06/11 04:58:08;;;;;;;2.92;1.60;;;24.50;50.90;;;;;;5042049;28;20028;-45
2022/06/11 05:00:34;;;;;;;2.53;1.40;;;24.50;50.90;;;;;;5040571;28;20033;-46
2022/06/11 05:03:00;;;;;;;2.60;1.40;;;24.60;51.00;;;;;;5042303;28;20029;-46
2022/06/11 05:05:28;;;;;;;2.75;1.40;;;24.50;50.90;;;;;;5040597;28;20033;-47
2022/06/11 05:07:56;;;;;;;3.30;1.40;;;24.50;50.80;;;;;;5042142;28;20584;-47
2022/06/11 05:10:25;;;;;;;2.35;1.30;;;24.50;50.70;;;;;;5042536;28;20028;-46
2022/06/11 05:12:51;;;;;;;3.03;1.45;;;24.60;50.60;;;;;;5041310;28;20037;-46
2022/06/11 05:15:17;;;;;;;2.70;1.42;;;24.60;50.60;;;;;;5041398;28;20139;-46
2022/06/11 05:17:43;;;;;;;2.50;1.52;;;24.60;50.50;;;;;;5040589;28;20090;-48
2022/06/11 05:20:11;;;;;;;2.10;1.45;;;24.60;50.60;;;;;;5040806;28;20711;-47
2022/06/11 05:22:38;;;;;;;2.60;1.48;;;24.60;50.40;;;;;;5042423;28;20029;-46
2022/06/11 05:25:05;;;;;;;2.42;1.30;;;24.60;50.30;;;;;;5042110;28;20045;-47
2022/06/11 05:27:32;;;;;;;2.90;1.45;;;24.60;50.70;;;;;;5037427;28;20282;-47
2022/06/11 05:30:07;;;;;;;2.80;1.48;;;24.60;50.70;;;;;;5041609;28;20231;-46
2022/06/11 05:32:37;;;;;;;4.22;1.92;;;24.70;50.80;;;;;;5040959;28;20040;-47
2022/06/11 05:35:06;;;;;;;5.07;2.40;;;24.70;50.70;;;;;;5041424;28;20547;-46
2022/06/11 05:37:33;;;;;;;3.88;1.80;;;24.70;50.70;;;;;;5041734;28;20519;-47
2022/06/11 05:39:58;;;;;;;3.72;1.50;;;24.70;50.60;;;;;;5039639;28;20060;-45
2022/06/11 05:42:25;;;;;;;3.25;1.60;;;24.70;50.60;;;;;;5042504;28;20258;-46
2022/06/11 05:44:52;;;;;;;3.28;1.58;;;24.70;50.50;;;;;;5039876;28;20025;-48
2022/06/11 05:47:20;;;;;;;3.47;1.90;;;24.70;50.40;;;;;;5038973;28;20159;-46
2022/06/11 05:49:49;;;;;;;3.00;1.40;;;24.70;50.50;;;;;;5041324;28;20036;-45
2022/06/11 05:52:23;;;;;;;3.53;1.63;;;24.70;50.50;;;;;;5040890;28;20115;-46
2022/06/11 05:54:51;;;;;;;3.78;1.25;;;24.70;50.40;;;;;;5041617;28;20036;-47
2022/06/11 05:57:21;;;;;;;3.35;1.67;;;24.70;50.40;;;;;;5041733;28;20078;-47
2022/06/11 05:59:54;;;;;;;4.18;1.70;;;24.80;50.40;;;;;;5042051;28;20033;-49
2022/06/11 06:02:22;;;;;;;2.95;1.52;;;24.70;50.30;;;;;;5040163;28;20021;-46
2022/06/11 06:04:47;;;;;;;2.67;1.52;;;24.80;50.30;;;;;;5039735;28;20051;-46
2022/06/11 06:07:13;;;;;;;4.38;1.60;;;24.80;50.30;;;;;;5040808;28;20029;-47
2022/06/11 06:09:39;;;;;;;3.22;1.38;;;24.70;50.20;;;;;;5041137;28;20029;-46
2022/06/11 06:12:05;;;;;;;2.65;1.40;;;24.80;50.90;;;;;;5041112;28;20029;-47
2022/06/11 06:14:31;;;;;;;2.38;1.55;;;24.80;50.10;;;;;;5041323;28;20489;-47
2022/06/11 06:16:57;;;;;;;3.13;1.40;;;24.80;50.10;;;;;;5036438;28;20040;-48
2022/06/11 06:19:23;;;;;;;2.75;1.20;;;24.80;50.10;;;;;;5035131;28;20026;-47
2022/06/11 06:21:49;;;;;;;3.58;1.60;;;24.80;50.00;;;;;;5034421;28;20527;-46
2022/06/11 06:24:15;;;;;;;3.72;1.40;;;24.80;50.10;;;;;;5041180;28;20096;-47
2022/06/11 06:26:41;;;;;;;2.20;1.27;;;24.80;50.10;;;;;;5041414;28;20461;-47
2022/06/11 06:29:07;;;;;;;3.20;1.30;;;24.80;50.00;;;;;;5042235;28;20035;-47
2022/06/11 06:31:33;;;;;;;2.90;1.52;;;24.80;50.00;;;;;;5041886;28;20849;-47
2022/06/11 06:34:01;;;;;;;2.13;1.30;;;24.80;50.00;;;;;;5042594;28;20025;-45
2022/06/11 06:36:28;;;;;;;2.53;1.30;;;24.80;50.00;;;;;;5042116;28;20103;-48
2022/06/11 06:38:54;;;;;;;3.20;1.42;;;24.80;50.00;;;;;;5040266;28;20021;-48
2022/06/11 06:41:21;;;;;;;2.25;1.27;;;24.80;50.00;;;;;;5041036;28;20580;-47
2022/06/11 06:43:48;;;;;;;2.75;1.30;;;24.80;50.00;;;;;;5041649;28;20090;-46
2022/06/11 06:46:15;;;;;;;2.67;1.13;;;24.80;50.00;;;;;;5027126;28;20034;-47
2022/06/11 06:48:43;;;;;;;2.75;1.20;;;24.80;50.00;;;;;;5021738;28;20529;-45
2022/06/11 06:51:10;;;;;;;2.63;1.52;;;24.80;50.00;;;;;;5021548;28;20084;-46
2022/06/11 06:53:37;;;;;;;2.25;1.15;;;24.80;50.00;;;;;;5022342;28;20060;-46
2022/06/11 06:56:04;;;;;;;3.25;1.52;;;24.90;50.10;;;;;;5019822;28;20033;-48
2022/06/11 06:58:30;;;;;;;1.90;1.20;;;24.80;50.00;;;;;;5023036;28;20029;-46
2022/06/11 07:00:55;;;;;;;2.72;1.27;;;24.90;50.10;;;;;;5037063;28;20076;-47
2022/06/11 07:03:21;;;;;;;2.38;1.20;;;24.90;50.10;;;;;;5045225;28;20178;-47
2022/06/11 07:05:48;;;;;;;2.45;1.30;;;24.90;50.00;;;;;;5044595;28;20021;-46
2022/06/11 07:08:15;;;;;;;2.50;1.30;;;24.90;50.00;;;;;;5043675;28;20116;-46
2022/06/11 07:10:49;;;;;;;2.30;1.20;;;24.90;50.00;;;;;;5045122;28;20017;-46
2022/06/11 07:13:16;;;;;;;2.40;1.30;;;24.90;50.00;;;;;;5044620;28;20044;-46
2022/06/11 07:15:44;;;;;;;2.28;1.10;;;24.90;50.10;;;;;;5041862;28;20028;-45
2022/06/11 07:18:47;;;;;;;1.75;1.10;;;24.90;50.20;;;;;;5043797;28;20588;-47
2022/06/11 07:21:16;;;;;;;;;;;24.90;50.00;;;;;;5041667;28;20037;-48
2022/06/11 07:24:08;;;;;;;1.85;1.00;;;24.90;50.00;;;;;;5043529;28;19909;-47
2022/06/11 07:26:41;;;;;;;2.15;1.08;;;24.90;50.00;;;;;;5044225;28;20037;-47
2022/06/11 07:29:21;;;;;;;2.30;1.30;;;24.90;49.90;;;;;;5043706;28;20052;-47
2022/06/11 07:31:49;;;;;;;1.77;1.20;;;24.90;50.00;;;;;;5044557;28;20033;-47
2022/06/11 07:34:15;;;;;;;2.22;1.20;;;24.90;49.90;;;;;;5045398;28;20049;-46
2022/06/11 07:36:42;;;;;;;2.88;1.20;;;24.90;49.80;;;;;;5044055;28;20063;-46
2022/06/11 07:39:07;;;;;;;2.60;1.33;;;24.90;49.80;;;;;;5042581;28;20021;-45
2022/06/11 07:41:33;;;;;;;2.72;1.10;;;24.90;49.80;;;;;;5044957;28;20040;-47
2022/06/11 07:43:59;;;;;;;1.95;1.05;;;24.90;49.80;;;;;;5045299;28;20564;-47
2022/06/11 07:46:24;;;;;;;2.20;1.08;;;24.90;49.80;;;;;;5044076;28;20025;-46
2022/06/11 07:48:50;;;;;;;1.88;1.00;;;24.90;49.80;;;;;;5042704;28;20056;-47
2022/06/11 07:51:19;;;;;;;1.73;0.98;;;24.90;49.80;;;;;;5025189;28;20116;-47
2022/06/11 07:53:46;;;;;;;1.75;1.00;;;24.90;49.80;;;;;;5025103;28;20036;-46
2022/06/11 07:56:12;;;;;;;2.15;1.25;;;24.90;49.80;;;;;;5025101;28;20033;-47
2022/06/11 07:58:38;;;;;;;1.90;1.10;;;24.90;49.80;;;;;;5024261;28;20037;-46
2022/06/11 08:01:07;;;;;;;2.75;1.13;;;24.90;50.50;;;;;;5035179;28;20036;-46
2022/06/11 08:03:37;;;;;;;2.53;1.40;;;24.90;49.80;;;;;;5044226;28;20033;-46
2022/06/11 08:06:05;;;;;;;2.35;1.42;;;24.90;48.90;;;;;;5044501;28;20021;-47
2022/06/11 08:08:32;;;;;;;3.15;1.58;;;24.90;48.30;;;;;;5042876;28;20552;-47
2022/06/11 08:11:02;;;;;;;4.25;2.50;;;24.80;48.80;;;;;;5044115;28;20036;-45
2022/06/11 08:13:28;;;;;;;2.80;1.40;;;24.80;49.10;;;;;;5044187;28;20033;-47
2022/06/11 08:15:55;;;;;;;3.83;2.00;;;24.70;49.30;;;;;;5044710;28;20036;-47
2022/06/11 08:18:23;;;;;;;3.33;1.85;;;24.70;50.00;;;;;;5044457;28;20033;-47
2022/06/11 08:20:52;;;;;;;3.15;1.58;;;24.70;50.30;;;;;;5025207;28;20030;-48
2022/06/11 08:23:21;;;;;;;2.97;1.65;;;24.70;50.10;;;;;;5034702;28;20025;-47
2022/06/11 08:25:46;;;;;;;3.38;1.50;;;24.70;50.00;;;;;;5023868;28;20025;-45
2022/06/11 08:28:14;;;;;;;3.10;1.67;;;24.70;49.90;;;;;;5035694;28;20060;-47
2022/06/11 08:30:41;;;;;;;3.53;2.10;;;24.70;49.30;;;;;;5043643;28;20064;-46
2022/06/11 08:33:07;;;;;;;2.65;1.52;;;24.70;48.40;;;;;;5044161;28;20093;-47
2022/06/11 08:35:34;;;;;;;3.15;1.80;;;24.60;49.00;;;;;;5044121;28;20024;-46
2022/06/11 08:38:00;;;;;;;3.13;1.55;;;24.60;49.20;;;;;;5028224;28;20072;-45
2022/06/11 08:40:34;;;;;;;3.90;1.88;;;24.60;49.30;;;;;;5022469;28;20029;-48
2022/06/11 08:43:40;;;;;;;4.60;1.50;;;24.60;48.80;;;;;;5023864;28;20096;-46
2022/06/11 08:46:11;;;;;;;3.53;1.55;;;24.60;49.10;;;;;;5038730;28;20040;-47
2022/06/11 08:49:09;;;;;;;4.70;1.88;;;24.60;49.00;;;;;;5043145;28;20639;-47
2022/06/11 08:51:45;;;;;;;3.40;1.75;;;24.50;49.20;;;;;;5022960;28;20132;-47
2022/06/11 08:54:31;;;;;;;2.72;1.75;;;24.50;49.10;;;;;;5023503;28;20037;-47
2022/06/11 08:57:16;;;;;;;3.17;1.83;;;24.50;49.50;;;;;;5022888;28;20069;-47
2022/06/11 09:00:20;;;;;;;4.15;2.08;;;24.50;48.90;;;;;;5023556;28;20044;-47
2022/06/11 09:03:40;;;;;;;3.95;2.00;;;24.50;49.40;;;;;;5023112;28;20653;-47
2022/06/11 09:06:34;;;;;;;2.85;1.60;;;24.50;48.80;;;;;;5020971;28;20028;-47
2022/06/11 09:09:25;;;;;;;2.85;1.63;;;24.40;48.80;;;;;;5022047;28;20563;-45
2022/06/11 09:12:02;;;;;;;2.83;1.65;;;24.40;49.10;;;;;;5022740;28;20025;-47
2022/06/11 09:14:44;;;;;;;4.68;2.42;;;24.40;49.00;;;;;;5023645;28;20065;-46
2022/06/11 09:17:36;;;;;;;3.20;1.73;;;24.40;49.10;;;;;;5027941;28;20429;-47
2022/06/11 09:20:28;;;;;;;3.28;1.50;;;24.40;48.90;;;;;;5022171;28;20072;-46
2022/06/11 09:23:11;;;;;;;2.53;1.45;;;24.40;48.30;;;;;;5023365;28;20545;-47
2022/06/11 09:25:52;;;;;;;3.28;1.50;;;24.40;47.70;;;;;;5023424;28;20021;-46
2022/06/11 09:28:48;;;;;;;4.63;1.95;;;24.30;48.40;;;;;;5022806;28;20041;-47
2022/06/11 09:31:35;;;;;;;4.53;1.90;;;24.30;48.20;;;;;;5023118;28;20021;-48
2022/06/11 09:34:15;;;;;;;4.70;1.75;;;24.30;48.10;;;;;;5023845;28;20037;-45
2022/06/11 09:37:12;;;;;;;5.70;1.80;;;24.30;46.90;;;;;;5039926;28;20664;-46
2022/06/11 09:39:50;;;;;;;4.50;1.48;;;24.30;47.20;;;;;;5042172;28;20032;-44
2022/06/11 09:42:37;;;;;;;3.30;1.48;;;24.30;47.10;;;;;;5043258;28;20025;-45
2022/06/11 09:45:09;;;;;;;2.15;1.10;;;24.30;47.10;;;;;;5041460;28;20021;-45
2022/06/11 09:48:02;;;;;;;3.50;1.63;;;24.30;46.60;;;;;;5022754;28;20037;-45
2022/06/11 09:50:35;;;;;;;5.10;1.55;;;24.20;47.10;;;;;;5021652;28;20026;-46
2022/06/11 09:53:25;;;;;;;3.38;1.80;;;24.30;47.00;;;;;;5022884;28;20029;-46
2022/06/11 09:56:00;;;;;;;2.70;1.42;;;24.20;46.80;;;;;;5022943;28;20030;-45
2022/06/11 09:59:05;;;;;;;3.50;1.20;;;24.20;46.80;;;;;;5022573;28;20076;-45
2022/06/11 10:01:53;;;;;;;3.53;1.55;;;24.20;46.20;;;;;;5035477;28;20031;-46
2022/06/11 11:27:21;;;;;;;2.85;1.58;;;24.80;45.80;;;;;;5328927;23;20063;-45
2022/06/11 11:30:14;;;;;;;3.63;1.50;;;24.80;46.10;;;;;;4945587;28;20678;-44
2022/06/11 11:32:42;;;;;;;2.95;1.42;;;24.80;46.10;;;;;;4924996;29;20435;-44
2022/06/11 11:35:36;;;;;;;1.90;1.25;;;24.80;46.20;;;;;;4929174;29;20031;-46
2022/06/11 11:38:05;;;;;;;3.47;1.50;;;24.80;46.10;;;;;;4909870;29;20040;-46
2022/06/11 11:40:34;;;;;;;2.67;1.20;;;24.80;45.10;;;;;;4910285;29;20608;-46
2022/06/11 11:43:09;;;;;;;1.85;1.17;;;24.80;45.60;;;;;;4914751;29;20095;-45
2022/06/11 11:45:49;;;;;;;3.15;1.63;;;24.80;45.80;;;;;;4928656;29;20507;-43
2022/06/11 11:48:26;;;;;;;2.45;0.93;;;24.80;45.60;;;;;;4928723;29;20031;-46
2022/06/11 11:51:05;;;;;;;2.80;1.25;;;24.80;45.40;;;;;;4926959;29;20031;-46
2022/06/11 11:53:47;;;;;;;3.17;1.20;;;24.90;45.00;;;;;;4928562;29;20563;-47
2022/06/11 11:56:33;;;;;;;2.60;1.10;;;24.90;45.70;;;;;;4927895;29;20102;-46
2022/06/11 11:59:23;;;;;;;2.58;1.38;;;24.90;45.30;;;;;;4928115;29;20040;-46
2022/06/11 12:01:51;;;;;;;4.38;1.80;;;24.90;45.90;;;;;;4928279;29;20028;-47
2022/06/11 12:04:41;;;;;;;3.08;1.38;;;24.90;46.10;;;;;;4928222;29;20020;-46
2022/06/11 12:07:13;;;;;;;2.95;1.13;;;24.90;45.20;;;;;;4928278;29;20050;-47
2022/06/11 12:10:07;;;;;;;2.08;1.00;;;25.00;44.90;;;;;;4927912;29;20081;-46
2022/06/11 12:12:35;;;;;;;3.65;1.25;;;25.00;45.30;;;;;;4928556;29;20034;-47
2022/06/11 12:15:13;;;;;;;3.15;1.55;;;25.00;45.70;;;;;;4928174;29;20039;-46
2022/06/11 12:18:14;;;;;;;4.68;1.30;;;25.00;45.00;;;;;;4927286;29;20043;-46
2022/06/11 12:21:05;;;;;;;2.70;1.30;;;25.00;45.80;;;;;;4920079;29;20063;-45
2022/06/11 12:23:42;;;;;;;2.58;1.05;;;25.00;45.30;;;;;;4928043;29;20150;-47
2022/06/11 12:26:18;;;;;;;2.42;1.13;;;25.00;45.00;;;;;;4927801;29;20471;-46
2022/06/11 12:28:52;;;;;;;2.50;1.20;;;25.10;45.60;;;;;;4927830;29;20509;-45
2022/06/11 12:31:18;;;;;;;2.33;1.02;;;25.10;45.70;;;;;;4927768;29;20043;-46
2022/06/11 12:33:45;;;;;;;1.98;1.05;;;25.10;44.50;;;;;;4927940;29;20028;-47
2022/06/11 12:36:45;;;;;;;2.80;1.30;;;25.10;44.90;;;;;;4927377;29;20043;-46
2022/06/11 12:39:29;;;;;;;3.47;1.20;;;25.10;45.40;;;;;;4927892;29;20118;-45
2022/06/11 12:42:03;;;;;;;2.65;1.35;;;25.10;45.70;;;;;;4927947;29;20020;-46
2022/06/11 12:44:47;;;;;;;4.03;1.35;;;25.20;45.30;;;;;;4927524;29;20079;-46
2022/06/11 12:47:38;;;;;;;3.60;1.30;;;25.20;45.50;;;;;;4926881;29;20046;-46
2022/06/11 12:50:16;;;;;;;1.90;1.08;;;25.20;45.40;;;;;;4927086;29;20035;-45
2022/06/11 12:52:45;;;;;;;4.47;1.70;;;25.30;45.50;;;;;;4928252;29;20039;-45
2022/06/11 12:55:36;;;;;;;2.95;1.23;;;25.30;44.90;;;;;;4926997;29;20506;-46
2022/06/11 12:58:25;;;;;;;2.67;1.40;;;25.30;45.20;;;;;;4927246;29;20034;-46
2022/06/11 13:01:03;;;;;;;2.95;1.20;;;25.30;45.30;;;;;;4927213;29;20522;-44
2022/06/11 13:04:10;;;;;;;3.70;1.63;;;25.30;45.00;;;;;;4926793;29;20020;-45
2022/06/11 13:06:55;;;;;;;4.05;1.50;;;25.40;44.70;;;;;;4926838;29;20094;-46
2022/06/11 13:09:42;;;;;;;2.00;1.02;;;25.40;44.70;;;;;;4926654;29;20066;-46
2022/06/11 13:12:16;;;;;;;3.22;1.45;;;25.40;45.30;;;;;;4918274;29;20575;-46
2022/06/11 13:15:00;;;;;;;2.42;1.27;;;25.40;45.50;;;;;;4914227;29;20080;-46
2022/06/11 13:17:44;;;;;;;3.20;1.40;;;25.40;44.80;;;;;;4915968;29;20491;-46
2022/06/11 13:20:29;;;;;;;2.47;1.23;;;25.50;44.80;;;;;;4914698;29;20036;-46
2022/06/11 13:22:55;;;;;;;5.43;1.52;;;25.50;43.60;;;;;;4920544;29;20024;-45
2022/06/11 13:25:46;;;;;;;3.35;1.30;;;25.50;44.10;;;;;;4925787;29;20082;-46
2022/06/11 13:28:29;;;;;;;2.95;1.35;;;25.50;45.30;;;;;;4925246;29;20035;-45
2022/06/11 13:31:04;;;;;;;2.70;1.40;;;25.60;44.60;;;;;;4925965;29;20039;-46
2022/06/11 13:34:07;;;;;;;3.20;1.63;;;25.60;43.80;;;;;;4925040;29;20035;-46
2022/06/11 13:37:00;;;;;;;2.90;1.47;;;25.60;44.10;;;;;;4925849;29;20043;-44
2022/06/11 13:39:41;;;;;;;3.50;1.40;;;25.70;43.30;;;;;;4925568;29;20032;-46
2022/06/11 13:42:38;;;;;;;2.97;1.27;;;25.70;43.90;;;;;;4925458;29;20028;-43
2022/06/11 13:45:24;;;;;;;4.40;1.45;;;25.70;43.40;;;;;;4926060;29;20045;-46
2022/06/11 13:47:50;;;;;;;3.70;1.30;;;25.70;43.70;;;;;;4935915;28;20032;-44
2022/06/11 13:50:37;;;;;;;2.88;1.70;;;25.70;43.10;;;;;;4918366;29;20557;-45
2022/06/11 13:55:53;;;;;;;3.30;1.30;;;25.80;42.50;;;;;;4921939;29;20085;-45
2022/06/11 13:58:51;;;;;;;3.42;1.10;;;25.80;41.60;;;;;;4915800;29;20441;-46
2022/06/11 14:01:39;;;;;;;2.70;1.13;;;25.80;41.60;;;;;;4924224;29;20028;-46
2022/06/11 14:04:34;;;;;;;4.53;1.58;;;25.80;41.90;;;;;;4923427;29;20038;-46
2022/06/11 14:07:05;;;;;;;3.40;1.30;;;25.80;42.70;;;;;;4922477;29;20042;-45
2022/06/11 14:12:45;;;;;;;2.88;1.50;;;25.90;42.60;;;;;;4927388;29;20026;-45
2022/06/11 14:15:32;;;;;;;2.95;1.30;;;25.90;42.30;;;;;;4929210;29;20106;-46
2022/06/11 14:18:23;;;;;;;2.80;1.45;;;25.90;42.50;;;;;;4923626;29;20111;-45
2022/06/11 14:21:06;;;;;;;2.88;1.50;;;25.90;42.80;;;;;;4924812;29;20024;-43
2022/06/11 14:23:32;;;;;;;2.72;1.10;;;25.90;42.00;;;;;;4920827;29;20085;-45
2022/06/11 14:26:01;;;;;;;2.55;1.30;;;25.90;41.90;;;;;;4928437;29;20035;-45
2022/06/11 14:28:29;;;;;;;2.75;1.38;;;26.00;43.80;;;;;;4924591;29;20035;-45
2022/06/11 14:31:04;;;;;;;2.50;1.10;;;25.90;42.50;;;;;;4929107;29;20460;-45
2022/06/11 14:33:36;;;;;;;3.60;1.55;;;26.00;42.90;;;;;;4927304;29;20031;-45
2022/06/11 14:36:18;;;;;;;2.83;1.38;;;26.00;40.70;;;;;;4924415;29;20031;-47
2022/06/11 14:38:47;;;;;;;2.83;1.33;;;26.00;43.40;;;;;;4922253;29;20024;-44
2022/06/11 14:41:19;;;;;;;2.40;1.33;;;26.00;44.30;;;;;;4928409;29;20463;-45
2022/06/11 14:44:02;;;;;;;2.60;1.23;;;26.00;42.70;;;;;;4928840;29;20050;-47
2022/06/11 14:46:31;;;;;;;2.72;1.75;;;26.00;43.60;;;;;;4923453;29;20103;-48
2022/06/11 14:48:57;;;;;;;1.95;1.10;;;26.00;43.00;;;;;;4922582;29;20039;-44
2022/06/11 14:51:26;;;;;;;3.10;1.48;;;26.00;42.40;;;;;;4921704;29;20024;-43